This is the latest recevied weather packets stored in our database for station/object NN5DX-12. If no packets are shown the sender has not sent any weather packets the latest 10 day(s).
| Time | Temp. | Humidity | Pressure | Rain* | Wind** | Luminosity | Snow |
|---|---|---|---|---|---|---|---|
| 1777752616 | 13.89° C | 24% | 1025.4 hPa | 0 mm | - | - | - |
| 1777752316 | 14.44° C | 26% | 1026 hPa | 0 mm | - | - | - |
| 1777752017 | 14.44° C | 27% | 1026.1 hPa | 0 mm | - | - | - |
| 1777751717 | 13.89° C | 27% | 1025.6 hPa | 0 mm | - | - | - |
| 1777751416 | 13.89° C | 25% | 1026.2 hPa | 0 mm | - | - | - |
| 1777751116 | 13.33° C | 30% | 1025.8 hPa | 0 mm | - | - | - |
| 1777750817 | 13.33° C | 26% | 1025.8 hPa | 0 mm | - | - | - |
| 1777750516 | 13.89° C | 26% | 1026.3 hPa | 0 mm | - | - | - |
| 1777750217 | 13.89° C | 25% | 1026.4 hPa | 0 mm | - | - | - |
| 1777749916 | 13.33° C | 28% | 1025.9 hPa | 0 mm | - | - | - |
| 1777749616 | 12.78° C | 24% | 1026 hPa | 0 mm | - | - | - |
| 1777749316 | 13.33° C | 23% | 1026.1 hPa | 0 mm | - | - | - |
| 1777749016 | 13.33° C | 22% | 1026 hPa | 0 mm | - | - | - |
| 1777748716 | 13.33° C | 21% | 1026 hPa | 0 mm | - | - | - |
| 1777748416 | 13.33° C | 23% | 1026 hPa | 0 mm | - | - | - |
| 1777748117 | 12.78° C | 22% | 1026.2 hPa | 0 mm | - | - | - |
| 1777747816 | 12.78° C | 23% | 1026.2 hPa | 0 mm | - | - | - |
| 1777747517 | 13.33° C | 21% | 1026.3 hPa | 0 mm | - | - | - |
| 1777747216 | 12.78° C | 25% | 1026.5 hPa | 0 mm | - | - | - |
| 1777746916 | 12.78° C | 22% | 1026.4 hPa | 0 mm | - | - | - |
| 1777746617 | 12.78° C | 23% | 1026.5 hPa | 0 mm | - | - | - |
| 1777746316 | 12.78° C | 25% | 1026.7 hPa | 0 mm | - | - | - |
| 1777746017 | 13.33° C | 26% | 1026.9 hPa | 0 mm | - | - | - |
| 1777745716 | 12.78° C | 27% | 1027 hPa | 0 mm | - | - | - |
| 1777745416 | 12.22° C | 26% | 1026.4 hPa | 0 mm | - | - | - |
* Rain latest hour (hover to see other rain measurements)
** Current wind speed in m/s (hover to see current wind gust speed)